Time;durP1;ratioP1;P1;durP2;ratioP2;P2;SDS_P1;SDS_P2;PMS_P1;PMS_P2;Temp;Humidity;BMP_temperature;BMP_pressure;BME280_temperature;BME280_humidity;BME280_pressure;Samples;Min_cycle;Max_cycle;Signal;HPM_P1;HPM_P2
2023/02/07 00:00:01;;;;;;;14.20;7.00;;;14.90;72.00;;;;;;4063004;29;20454;-65
2023/02/07 00:02:54;;;;;;;11.82;6.13;;;14.90;71.50;;;;;;4065227;29;20067;-65
2023/02/07 00:05:36;;;;;;;17.98;7.18;;;15.00;71.30;;;;;;4076708;29;20194;-66
2023/02/07 00:08:17;;;;;;;13.27;6.97;;;15.10;71.00;;;;;;4058100;29;20079;-65
2023/02/07 00:11:03;;;;;;;17.17;6.60;;;15.20;70.80;;;;;;4063139;29;20072;-66
2023/02/07 00:13:46;;;;;;;17.23;7.20;;;15.20;70.60;;;;;;4062707;29;20102;-65
2023/02/07 00:16:27;;;;;;;12.57;7.00;;;15.20;70.20;;;;;;4062848;29;20143;-65
2023/02/07 00:19:08;;;;;;;13.95;7.20;;;15.20;70.20;;;;;;4063351;29;20059;-66
2023/02/07 00:21:49;;;;;;;15.57;6.70;;;15.30;70.20;;;;;;4063125;29;20686;-65
2023/02/07 00:24:30;;;;;;;17.20;6.85;;;15.30;70.00;;;;;;4062732;29;20070;-65
2023/02/07 00:27:11;;;;;;;15.57;7.38;;;15.30;69.90;;;;;;4046941;29;20050;-66
2023/02/07 00:29:53;;;;;;;12.52;6.85;;;15.30;70.10;;;;;;4036141;29;20582;-65
2023/02/07 00:32:35;;;;;;;13.65;7.32;;;15.40;70.00;;;;;;4046455;29;20063;-65
2023/02/07 00:35:17;;;;;;;13.90;7.60;;;15.40;69.60;;;;;;4047210;29;20088;-65
2023/02/07 00:37:58;;;;;;;15.98;7.78;;;15.50;69.30;;;;;;4047193;29;20060;-65
2023/02/07 00:40:39;;;;;;;13.85;5.85;;;15.50;68.90;;;;;;4047368;29;20165;-65
2023/02/07 00:43:20;;;;;;;17.65;7.65;;;15.60;68.90;;;;;;4051210;29;20462;-66
2023/02/07 00:46:11;;;;;;;13.10;6.97;;;15.50;68.60;;;;;;4063158;29;20525;-65
2023/02/07 00:48:52;;;;;;;12.02;7.05;;;15.60;68.60;;;;;;4051239;29;20127;-65
2023/02/07 00:51:33;;;;;;;13.30;6.97;;;15.60;68.50;;;;;;4062916;29;20162;-65
2023/02/07 00:54:15;;;;;;;15.40;7.10;;;15.50;68.40;;;;;;4062549;29;20168;-65
2023/02/07 00:56:57;;;;;;;15.27;7.18;;;15.50;68.50;;;;;;4048922;29;20056;-65
2023/02/07 00:59:38;;;;;;;18.60;7.88;;;15.50;68.70;;;;;;4062692;29;20066;-65
2023/02/07 01:02:20;;;;;;;17.35;7.40;;;15.40;68.80;;;;;;4050401;29;20099;-65
2023/02/07 01:05:01;;;;;;;13.02;7.03;;;15.40;68.70;;;;;;4062455;29;20062;-65
2023/02/07 01:07:42;;;;;;;20.45;7.60;;;15.40;68.80;;;;;;4062272;29;20055;-66
2023/02/07 01:10:23;;;;;;;11.50;6.38;;;15.40;68.90;;;;;;4049876;29;20066;-66
2023/02/07 01:13:04;;;;;;;17.88;6.97;;;15.50;68.90;;;;;;4062444;29;20055;-65
2023/02/07 01:15:47;;;;;;;13.82;6.95;;;15.50;68.60;;;;;;4062256;29;20071;-66
2023/02/07 01:18:30;;;;;;;13.45;6.53;;;15.50;68.40;;;;;;4050931;29;20063;-65
2023/02/07 01:21:15;;;;;;;15.10;7.63;;;15.50;68.50;;;;;;4051284;29;20566;-65
2023/02/07 01:23:56;;;;;;;16.17;7.22;;;15.50;68.30;;;;;;4062437;29;20051;-65
2023/02/07 01:26:38;;;;;;;11.75;7.53;;;15.60;68.30;;;;;;4062628;29;20055;-66
2023/02/07 01:29:20;;;;;;;14.68;7.15;;;15.60;68.20;;;;;;4052857;29;20135;-65
2023/02/07 01:32:01;;;;;;;12.80;7.80;;;15.50;68.20;;;;;;4065320;29;20123;-66
2023/02/07 01:34:43;;;;;;;13.57;7.20;;;15.60;68.40;;;;;;4040892;29;20184;-65
2023/02/07 01:37:24;;;;;;;17.52;8.38;;;15.60;68.20;;;;;;4053981;29;20118;-65
2023/02/07 01:40:06;;;;;;;14.05;7.68;;;15.60;68.00;;;;;;4065728;29;20082;-65
2023/02/07 01:42:46;;;;;;;;;;;15.60;67.80;;;;;;4065795;29;20071;-66
2023/02/07 01:45:30;;;;;;;14.55;7.60;;;15.60;68.00;;;;;;4064678;29;19930;-65
2023/02/07 01:48:15;;;;;;;16.33;7.97;;;15.50;68.20;;;;;;4065693;29;20550;-65
2023/02/07 01:51:02;;;;;;;13.52;6.82;;;15.40;68.20;;;;;;4065423;29;20139;-65
2023/02/07 01:53:43;;;;;;;16.10;7.93;;;15.40;68.40;;;;;;4042629;29;20131;-65
2023/02/07 01:56:25;;;;;;;16.60;8.35;;;15.40;68.50;;;;;;4040799;29;20095;-66
2023/02/07 01:59:14;;;;;;;11.38;7.57;;;15.50;68.30;;;;;;4053359;29;20503;-65
2023/02/07 02:01:56;;;;;;;12.70;7.85;;;15.50;68.10;;;;;;4065040;29;20479;-65
2023/02/07 02:04:38;;;;;;;17.08;8.77;;;15.50;68.00;;;;;;4053611;29;20188;-66
2023/02/07 02:07:20;;;;;;;;;;;15.50;68.00;;;;;;4065680;29;20062;-65
2023/02/07 02:10:01;;;;;;;14.90;7.80;;;15.50;68.10;;;;;;4053055;29;19933;-65
2023/02/07 02:12:57;;;;;;;15.25;7.10;;;15.40;68.30;;;;;;4064930;29;20063;-65
2023/02/07 02:15:44;;;;;;;16.08;8.18;;;15.40;67.90;;;;;;4048939;29;20448;-65
2023/02/07 02:18:54;;;;;;;15.95;7.25;;;15.40;68.20;;;;;;4038152;29;20056;-65
2023/02/07 02:22:11;;;;;;;16.30;8.20;;;15.30;67.90;;;;;;4064784;29;20063;-65
2023/02/07 02:25:28;;;;;;;14.95;7.72;;;15.30;68.30;;;;;;4052817;29;20055;-65
2023/02/07 02:28:37;;;;;;;14.32;8.38;;;15.30;68.30;;;;;;4064371;29;20055;-65
2023/02/07 02:31:45;;;;;;;15.27;7.70;;;15.30;68.30;;;;;;4048991;29;20190;-65
2023/02/07 02:34:37;;;;;;;17.60;8.48;;;15.30;68.10;;;;;;4078299;29;20054;-65
2023/02/07 02:37:26;;;;;;;12.75;7.88;;;15.30;68.00;;;;;;4073684;29;20412;-66
2023/02/07 02:40:13;;;;;;;16.17;8.95;;;15.30;67.90;;;;;;4063059;29;20211;-66
2023/02/07 02:43:00;;;;;;;11.15;8.27;;;15.30;67.90;;;;;;4064672;29;20055;-66
2023/02/07 02:45:45;;;;;;;18.48;8.60;;;15.30;68.00;;;;;;4037511;29;20108;-66
2023/02/07 02:48:28;;;;;;;14.73;8.05;;;15.30;68.10;;;;;;4062683;29;20590;-66
2023/02/07 02:51:10;;;;;;;14.43;8.45;;;15.30;67.90;;;;;;4037404;29;20568;-65
2023/02/07 02:53:52;;;;;;;13.25;7.95;;;15.30;67.90;;;;;;4048944;29;20389;-65
2023/02/07 02:57:15;;;;;;;12.23;7.95;;;15.30;68.00;;;;;;4054039;29;20082;-66
2023/02/07 03:00:11;;;;;;;13.20;7.68;;;15.40;67.90;;;;;;4063786;29;20594;-65
2023/02/07 03:03:05;;;;;;;21.63;10.25;;;15.40;67.40;;;;;;4066419;29;20059;-64
2023/02/07 03:05:57;;;;;;;18.80;10.05;;;15.50;67.30;;;;;;4079785;29;20183;-65
2023/02/07 03:08:45;;;;;;;16.25;8.95;;;15.50;66.90;;;;;;4048015;29;20104;-64
2023/02/07 03:11:29;;;;;;;16.58;9.35;;;15.50;66.70;;;;;;4057407;29;20412;-65
2023/02/07 03:14:17;;;;;;;14.48;8.60;;;15.50;66.90;;;;;;4052220;29;20055;-65
2023/02/07 03:17:08;;;;;;;14.75;8.35;;;15.60;66.80;;;;;;4051840;29;20138;-65
2023/02/07 03:19:55;;;;;;;15.48;9.68;;;15.60;66.70;;;;;;4052628;29;20059;-65
2023/02/07 03:22:36;;;;;;;17.67;9.05;;;15.70;66.60;;;;;;4047711;29;20059;-65
2023/02/07 03:25:21;;;;;;;14.02;8.77;;;15.70;66.40;;;;;;4038936;29;20569;-65
2023/02/07 03:28:04;;;;;;;16.10;8.75;;;15.70;66.20;;;;;;4047834;29;20055;-65
2023/02/07 03:30:49;;;;;;;18.38;8.95;;;15.80;66.30;;;;;;4048690;29;20067;-65
2023/02/07 03:33:31;;;;;;;13.45;9.05;;;15.80;66.20;;;;;;4055702;29;20512;-65
2023/02/07 03:36:17;;;;;;;17.45;8.73;;;15.70;66.20;;;;;;4039228;29;20055;-65
2023/02/07 03:38:59;;;;;;;15.63;8.73;;;15.70;65.90;;;;;;4046768;29;20060;-66
2023/02/07 03:41:43;;;;;;;;;;;15.70;66.00;;;;;;4048740;29;20451;-65
2023/02/07 03:44:27;;;;;;;16.83;9.38;;;15.70;66.30;;;;;;4048722;29;19934;-65
2023/02/07 03:47:07;;;;;;;12.48;9.23;;;15.70;66.40;;;;;;4048580;29;20139;-64
2023/02/07 03:49:48;;;;;;;14.70;8.80;;;15.70;66.30;;;;;;4048535;29;20064;-65
2023/02/07 03:52:29;;;;;;;16.25;8.93;;;15.60;66.50;;;;;;4048151;29;20059;-65
2023/02/07 03:55:11;;;;;;;12.70;8.82;;;15.60;66.50;;;;;;4047981;29;20143;-65
2023/02/07 03:57:53;;;;;;;15.93;8.88;;;15.60;66.40;;;;;;4048329;29;20144;-65
2023/02/07 04:00:34;;;;;;;17.33;9.30;;;15.50;66.50;;;;;;4048325;29;20135;-65
2023/02/07 04:03:15;;;;;;;14.95;8.93;;;15.50;66.50;;;;;;4053315;29;20212;-65
2023/02/07 04:05:56;;;;;;;16.88;9.40;;;15.60;66.40;;;;;;4063601;29;20055;-64
2023/02/07 04:08:37;;;;;;;14.85;8.90;;;15.60;66.10;;;;;;4040180;29;20130;-65
2023/02/07 04:11:18;;;;;;;16.88;9.35;;;15.60;66.20;;;;;;4047804;29;20051;-65
2023/02/07 04:14:01;;;;;;;15.27;9.50;;;15.60;66.10;;;;;;4048014;29;20519;-65
2023/02/07 04:16:42;;;;;;;16.80;9.10;;;15.50;66.00;;;;;;4048123;29;20060;-65
2023/02/07 04:19:23;;;;;;;14.48;9.27;;;15.40;66.30;;;;;;4048072;29;20060;-65
2023/02/07 04:22:05;;;;;;;18.05;10.05;;;15.40;66.60;;;;;;4051710;29;20597;-65
2023/02/07 04:24:46;;;;;;;16.95;9.80;;;15.40;66.70;;;;;;4060714;29;20058;-65
2023/02/07 04:27:26;;;;;;;15.43;9.43;;;15.50;66.80;;;;;;4062672;29;20078;-65
2023/02/07 04:30:10;;;;;;;15.52;9.50;;;15.60;66.40;;;;;;4062965;29;20046;-65
2023/02/07 04:32:51;;;;;;;16.40;10.30;;;15.60;65.90;;;;;;4062140;29;20063;-65
2023/02/07 04:35:32;;;;;;;12.82;9.43;;;15.60;65.80;;;;;;4073153;29;20058;-65
2023/02/07 04:38:14;;;;;;;17.08;9.73;;;15.70;65.50;;;;;;4030936;29;20144;-65
2023/02/07 04:40:59;;;;;;;14.77;9.20;;;15.70;65.40;;;;;;4035789;29;20095;-65
2023/02/07 04:43:40;;;;;;;15.27;9.18;;;15.60;65.20;;;;;;4046751;29;20067;-65
2023/02/07 04:46:22;;;;;;;16.70;9.48;;;15.70;65.40;;;;;;4047381;29;20499;-64
2023/02/07 04:49:03;;;;;;;19.73;10.23;;;15.70;65.60;;;;;;4054812;29;20055;-64
2023/02/07 04:51:45;;;;;;;14.07;9.82;;;15.70;65.50;;;;;;4062597;29;20533;-65
2023/02/07 04:54:26;;;;;;;14.45;9.95;;;15.70;65.20;;;;;;4062612;29;20047;-65
2023/02/07 04:57:07;;;;;;;16.80;9.77;;;15.70;65.20;;;;;;4062615;29;20063;-65
2023/02/07 04:59:48;;;;;;;14.25;9.50;;;15.70;65.00;;;;;;4046794;29;20060;-65
2023/02/07 05:02:30;;;;;;;18.85;10.02;;;15.60;65.30;;;;;;4032097;29;20493;-66
2023/02/07 05:05:11;;;;;;;14.23;9.55;;;15.50;65.40;;;;;;4050373;29;20198;-66
2023/02/07 05:07:52;;;;;;;17.85;9.90;;;15.50;65.50;;;;;;4050582;29;20063;-65
2023/02/07 05:10:33;;;;;;;19.33;10.65;;;15.40;65.60;;;;;;4055705;29;20063;-65
2023/02/07 05:13:13;;;;;;;15.60;10.30;;;15.30;65.90;;;;;;4065649;29;20503;-66
2023/02/07 05:15:54;;;;;;;13.57;9.88;;;15.30;66.20;;;;;;4050021;29;20409;-65
2023/02/07 05:18:37;;;;;;;15.85;10.10;;;15.30;66.30;;;;;;4050382;29;20515;-65
2023/02/07 05:21:18;;;;;;;19.45;10.70;;;15.30;66.10;;;;;;4050174;29;20059;-62
2023/02/07 05:23:58;;;;;;;15.30;10.63;;;15.40;66.10;;;;;;4050543;29;20520;-62
2023/02/07 05:26:40;;;;;;;14.65;10.35;;;15.30;65.80;;;;;;4034833;29;20548;-62
2023/02/07 05:29:21;;;;;;;16.23;10.60;;;15.30;65.90;;;;;;4034698;29;20060;-62
2023/02/07 05:35:01;;;;;;;18.55;11.25;;;15.30;66.00;;;;;;4049770;29;20447;-62
2023/02/07 05:37:42;;;;;;;15.73;10.48;;;15.20;66.00;;;;;;4049820;29;20177;-63
2023/02/07 05:40:23;;;;;;;14.18;9.95;;;15.20;66.10;;;;;;4049722;29;20063;-63
2023/02/07 05:43:06;;;;;;;13.32;9.90;;;15.10;66.20;;;;;;4049736;29;20047;-62
2023/02/07 05:45:47;;;;;;;;;;;15.00;66.20;;;;;;4034873;29;20060;-62
2023/02/07 05:48:28;;;;;;;15.30;10.70;;;15.00;66.70;;;;;;4034518;29;20072;-62
2023/02/07 05:51:10;;;;;;;13.52;10.02;;;14.90;67.10;;;;;;4036117;29;20072;-62
2023/02/07 05:53:51;;;;;;;17.60;10.27;;;14.80;67.10;;;;;;4049675;29;20070;-62
2023/02/07 05:56:32;;;;;;;16.10;10.70;;;14.80;67.50;;;;;;4060045;29;20063;-62
2023/02/07 05:59:13;;;;;;;18.75;11.25;;;14.80;67.60;;;;;;4065230;29;20067;-62
2023/02/07 06:01:54;;;;;;;14.70;10.57;;;14.90;67.50;;;;;;4065268;29;20078;-62
2023/02/07 06:04:35;;;;;;;20.38;12.32;;;15.10;67.10;;;;;;4049916;29;20055;-62
2023/02/07 06:07:18;;;;;;;15.27;11.45;;;15.20;66.70;;;;;;4039105;29;20055;-62
2023/02/07 06:09:58;;;;;;;18.17;11.18;;;15.40;67.00;;;;;;4065157;29;20597;-61
2023/02/07 06:12:40;;;;;;;15.63;11.05;;;15.50;65.70;;;;;;4048564;29;20416;-61
2023/02/07 06:15:21;;;;;;;18.92;12.43;;;15.70;65.10;;;;;;4048944;29;20052;-63
2023/02/07 06:18:02;;;;;;;18.23;12.00;;;15.80;64.50;;;;;;4049154;29;20059;-62
2023/02/07 06:20:43;;;;;;;17.33;12.18;;;16.00;64.00;;;;;;4049297;29;20056;-62
2023/02/07 06:23:25;;;;;;;18.73;12.33;;;16.10;63.50;;;;;;4034597;29;20408;-62
2023/02/07 06:26:06;;;;;;;17.27;11.50;;;16.10;63.30;;;;;;4033607;29;20301;-62
2023/02/07 06:28:47;;;;;;;18.92;11.55;;;16.10;63.10;;;;;;4033725;29;20056;-62
2023/02/07 06:31:28;;;;;;;16.00;11.65;;;16.10;63.20;;;;;;4033777;29;20132;-62
2023/02/07 06:34:09;;;;;;;17.63;11.32;;;16.20;63.10;;;;;;4038282;29;20064;-62
2023/02/07 06:36:50;;;;;;;17.37;11.77;;;16.30;62.80;;;;;;4033792;29;20133;-62
2023/02/07 06:39:32;;;;;;;13.73;11.52;;;16.40;62.50;;;;;;4033644;29;20060;-62
2023/02/07 06:42:13;;;;;;;17.60;12.95;;;16.40;62.00;;;;;;4032779;29;20150;-62
2023/02/07 06:44:54;;;;;;;19.67;12.10;;;16.40;62.80;;;;;;4033255;29;20052;-62
2023/02/07 06:47:35;;;;;;;15.68;11.85;;;16.30;61.90;;;;;;4033260;29;20048;-62
2023/02/07 06:50:16;;;;;;;17.50;12.05;;;16.30;62.00;;;;;;4033013;29;20055;-62
2023/02/07 06:53:00;;;;;;;18.33;12.63;;;16.20;62.40;;;;;;4018370;29;20048;-62
2023/02/07 06:55:43;;;;;;;16.98;12.15;;;16.20;62.50;;;;;;4018105;29;20093;-61
2023/02/07 06:58:24;;;;;;;15.73;12.10;;;16.20;62.40;;;;;;4017776;29;20064;-62
2023/02/07 07:01:05;;;;;;;17.10;11.95;;;16.10;62.40;;;;;;4017672;29;20108;-60
2023/02/07 07:03:46;;;;;;;;;;;16.10;62.70;;;;;;4038123;29;20827;-63
2023/02/07 07:06:27;;;;;;;15.32;11.98;;;16.00;62.80;;;;;;4033536;29;19946;-61
2023/02/07 07:09:08;;;;;;;16.88;12.82;;;16.00;63.00;;;;;;4033144;29;20056;-62
2023/02/07 07:11:50;;;;;;;17.73;13.00;;;15.90;63.40;;;;;;4032758;29;20180;-61
2023/02/07 07:14:31;;;;;;;18.23;13.15;;;16.00;64.00;;;;;;4033057;29;20077;-62
2023/02/07 07:17:14;;;;;;;17.95;13.88;;;16.00;63.40;;;;;;4023274;29;20056;-61
2023/02/07 07:19:55;;;;;;;17.67;12.38;;;16.00;63.00;;;;;;4032671;29;20209;-60
2023/02/07 07:22:36;;;;;;;17.00;12.95;;;16.00;62.80;;;;;;4029494;29;20112;-63
2023/02/07 07:25:17;;;;;;;18.73;13.30;;;16.00;62.30;;;;;;4048266;29;20140;-63
2023/02/07 07:27:59;;;;;;;17.15;12.60;;;16.00;62.30;;;;;;4049055;29;20279;-66
2023/02/07 07:30:40;;;;;;;15.38;11.70;;;16.00;62.20;;;;;;4041562;29;20083;-63
2023/02/07 07:33:21;;;;;;;18.40;11.48;;;15.90;63.30;;;;;;4038936;29;20055;-63
2023/02/07 07:36:03;;;;;;;16.67;11.65;;;15.80;62.80;;;;;;4033831;29;20161;-62
2023/02/07 07:38:44;;;;;;;14.77;10.73;;;15.80;62.80;;;;;;4048049;29;20111;-63
2023/02/07 07:41:25;;;;;;;15.73;11.05;;;15.80;62.90;;;;;;4048111;29;20492;-63
2023/02/07 07:44:08;;;;;;;13.85;11.30;;;15.80;62.80;;;;;;4036594;29;20063;-63
2023/02/07 07:46:49;;;;;;;13.13;10.13;;;15.80;62.50;;;;;;4047972;29;20060;-63
2023/02/07 07:49:30;;;;;;;12.93;10.63;;;15.70;62.50;;;;;;4047966;29;20127;-63
2023/02/07 07:52:11;;;;;;;12.32;10.10;;;15.60;62.80;;;;;;4048034;29;20492;-63
2023/02/07 07:54:53;;;;;;;14.15;10.80;;;15.50;63.20;;;;;;4033555;29;20160;-63
2023/02/07 07:57:33;;;;;;;14.33;10.97;;;15.50;63.40;;;;;;4045509;29;20510;-63
2023/02/07 08:00:16;;;;;;;14.90;10.55;;;15.50;63.40;;;;;;4033226;29;20387;-62
2023/02/07 08:02:57;;;;;;;15.27;10.95;;;15.60;63.00;;;;;;4045152;29;20063;-63
2023/02/07 08:05:38;;;;;;;12.73;10.27;;;15.70;62.80;;;;;;4045146;29;20064;-63
2023/02/07 08:08:19;;;;;;;14.60;11.93;;;15.80;62.30;;;;;;4034816;29;20072;-63
2023/02/07 08:11:02;;;;;;;13.18;9.95;;;15.90;62.10;;;;;;4044821;29;20196;-63
2023/02/07 08:13:43;;;;;;;14.80;10.50;;;16.00;61.80;;;;;;4044041;29;20622;-63
2023/02/07 08:16:25;;;;;;;14.10;10.43;;;16.10;61.60;;;;;;4044819;29;20067;-63
2023/02/07 08:19:06;;;;;;;14.98;10.65;;;16.10;61.40;;;;;;4043875;29;20056;-63
2023/02/07 08:21:47;;;;;;;12.85;10.93;;;16.10;61.60;;;;;;4039046;29;20372;-63
2023/02/07 08:24:28;;;;;;;14.00;11.03;;;16.20;61.40;;;;;;4029785;29;20060;-61
2023/02/07 08:27:10;;;;;;;15.98;10.75;;;16.20;61.20;;;;;;4028647;29;20496;-64
2023/02/07 08:29:51;;;;;;;14.52;10.40;;;16.20;60.80;;;;;;4041296;29;20087;-64
2023/02/07 08:32:33;;;;;;;11.10;9.27;;;16.20;61.00;;;;;;4036900;29;21353;-64
2023/02/07 08:35:15;;;;;;;15.00;10.98;;;16.20;61.20;;;;;;4037864;29;20059;-64
2023/02/07 08:37:57;;;;;;;13.73;11.20;;;16.10;61.20;;;;;;4028674;29;20060;-64
2023/02/07 08:40:38;;;;;;;14.68;10.95;;;16.00;61.40;;;;;;4035297;29;20059;-64
2023/02/07 08:43:20;;;;;;;11.73;9.85;;;15.90;61.40;;;;;;4034795;29;20136;-64
2023/02/07 08:46:00;;;;;;;12.93;10.65;;;15.90;61.80;;;;;;4034610;29;20381;-67
2023/02/07 08:48:43;;;;;;;12.10;10.45;;;15.80;62.20;;;;;;4029841;29;20068;-67
2023/02/07 08:51:24;;;;;;;11.95;10.40;;;15.80;62.10;;;;;;4035830;29;20064;-67
2023/02/07 08:54:05;;;;;;;13.60;10.38;;;15.80;62.30;;;;;;4032247;29;20060;-65
2023/02/07 08:56:46;;;;;;;15.50;10.85;;;15.70;62.30;;;;;;4032726;29;20071;-66
2023/02/07 08:59:27;;;;;;;12.48;10.18;;;15.70;62.50;;;;;;4033913;29;20052;-66
2023/02/07 09:02:10;;;;;;;13.77;10.18;;;15.60;62.70;;;;;;4037074;29;20063;-65
2023/02/07 09:04:54;;;;;;;13.80;10.80;;;15.60;62.80;;;;;;4038464;29;20059;-65
2023/02/07 09:07:35;;;;;;;12.18;10.05;;;15.60;62.70;;;;;;4035801;29;20060;-64
2023/02/07 09:10:17;;;;;;;11.95;10.15;;;15.60;62.80;;;;;;4034102;29;20184;-65
2023/02/07 09:12:58;;;;;;;13.15;10.63;;;15.50;63.00;;;;;;4034907;29;20232;-65
2023/02/07 09:15:39;;;;;;;16.80;10.95;;;15.50;63.10;;;;;;4037810;29;20562;-65
2023/02/07 09:18:20;;;;;;;14.52;10.00;;;15.50;63.30;;;;;;4042368;29;20131;-67
2023/02/07 09:21:02;;;;;;;14.23;9.50;;;15.50;63.70;;;;;;4039627;29;20129;-65
2023/02/07 09:23:44;;;;;;;11.57;10.25;;;15.50;63.50;;;;;;4027931;29;20204;-65
2023/02/07 09:26:26;;;;;;;14.30;9.98;;;15.50;63.50;;;;;;4028694;29;20060;-65
2023/02/07 09:29:10;;;;;;;13.07;9.75;;;15.50;63.50;;;;;;4028802;29;20404;-64
2023/02/07 09:31:51;;;;;;;19.52;8.63;;;15.50;63.30;;;;;;4027617;29;20540;-64
2023/02/07 09:34:32;;;;;;;12.90;9.15;;;15.60;63.30;;;;;;4028297;29;20080;-65
2023/02/07 09:37:15;;;;;;;;;;;15.60;63.50;;;;;;4029462;29;20068;-65
2023/02/07 09:39:55;;;;;;;9.32;7.88;;;15.50;63.10;;;;;;4028204;29;20060;-65
2023/02/07 09:42:44;;;;;;;9.45;8.45;;;15.50;63.00;;;;;;4028375;29;20071;-66
2023/02/07 09:45:28;;;;;;;10.93;7.40;;;15.50;62.50;;;;;;4028487;29;20476;-65
2023/02/07 09:48:18;;;;;;;10.95;9.02;;;15.50;62.30;;;;;;4028984;29;20052;-64
2023/02/07 09:51:03;;;;;;;12.25;8.32;;;15.50;61.60;;;;;;4030593;29;20067;-64
2023/02/07 09:53:53;;;;;;;11.55;9.48;;;15.50;61.60;;;;;;4031234;29;20055;-65
2023/02/07 09:56:35;;;;;;;9.68;8.68;;;15.50;61.30;;;;;;4038601;29;20549;-66
2023/02/07 09:59:24;;;;;;;10.48;9.40;;;15.60;61.40;;;;;;4030897;29;20504;-65
2023/02/07 10:02:18;;;;;;;10.27;9.05;;;15.60;61.30;;;;;;4029810;29;20055;-65
2023/02/07 10:05:02;;;;;;;11.13;8.35;;;15.50;61.60;;;;;;4030264;29;20121;-65
2023/02/07 10:07:44;;;;;;;11.23;8.57;;;15.50;62.00;;;;;;4030384;29;20986;-65
2023/02/07 10:10:31;;;;;;;;;;;15.50;62.40;;;;;;4031144;29;20060;-65
2023/02/07 10:13:35;;;;;;;8.68;7.88;;;15.50;62.30;;;;;;4028848;29;20344;-65
2023/02/07 10:16:29;;;;;;;8.93;7.78;;;15.60;62.10;;;;;;4030518;29;20628;-65
2023/02/07 10:19:25;;;;;;;9.85;8.85;;;15.60;61.90;;;;;;4029914;29;20059;-64
2023/02/07 10:22:16;;;;;;;9.68;8.60;;;15.60;62.00;;;;;;4030304;29;20063;-65
2023/02/07 10:25:13;;;;;;;9.38;7.95;;;15.50;61.80;;;;;;4029567;29;20162;-66
2023/02/07 10:28:09;;;;;;;11.73;7.90;;;15.50;62.00;;;;;;4030603;29;20075;-65
2023/02/07 10:30:54;;;;;;;9.45;8.27;;;15.40;62.50;;;;;;4030758;29;20117;-65
2023/02/07 10:33:39;;;;;;;9.38;7.78;;;15.30;62.70;;;;;;4030988;29;20056;-67
2023/02/07 10:36:21;;;;;;;11.73;8.65;;;15.30;63.10;;;;;;4031121;29;20064;-66
2023/02/07 10:39:07;;;;;;;13.10;9.43;;;15.20;63.90;;;;;;4029944;29;20067;-66
2023/02/07 10:41:51;;;;;;;13.23;8.93;;;15.20;64.20;;;;;;4029701;29;20052;-65
2023/02/07 10:44:32;;;;;;;11.90;8.65;;;15.20;64.40;;;;;;4030936;29;20068;-64
2023/02/07 10:47:16;;;;;;;10.57;9.27;;;15.20;64.50;;;;;;4030734;29;20822;-64
2023/02/07 10:49:58;;;;;;;10.40;8.52;;;15.20;64.80;;;;;;4018604;29;20508;-64
2023/02/07 10:52:43;;;;;;;10.32;8.45;;;15.20;64.70;;;;;;4030479;29;20654;-64
2023/02/07 10:55:37;;;;;;;11.52;9.15;;;15.20;64.80;;;;;;4029950;29;20124;-65
2023/02/07 10:58:23;;;;;;;10.35;8.88;;;15.20;64.60;;;;;;4028648;29;20080;-65
2023/02/07 11:01:16;;;;;;;12.40;8.20;;;15.20;64.80;;;;;;4017328;29;20156;-64
2023/02/07 11:03:58;;;;;;;10.13;9.10;;;15.20;64.90;;;;;;4029187;29;20056;-66
2023/02/07 11:06:39;;;;;;;14.30;10.18;;;15.30;64.90;;;;;;4029837;29;20069;-69
2023/02/07 11:09:23;;;;;;;12.02;9.60;;;15.30;64.60;;;;;;4030011;29;20128;-67
2023/02/07 11:12:15;;;;;;;13.20;9.43;;;15.30;64.90;;;;;;4029487;29;20063;-66
2023/02/07 11:15:04;;;;;;;11.65;9.32;;;15.40;65.00;;;;;;4027808;29;20060;-66
2023/02/07 11:17:52;;;;;;;15.63;9.82;;;15.50;64.60;;;;;;4028120;29;20088;-65
2023/02/07 11:20:36;;;;;;;10.77;9.23;;;15.60;64.30;;;;;;4030036;29;20060;-65
2023/02/07 11:23:19;;;;;;;12.93;10.00;;;15.70;64.10;;;;;;4043113;29;20056;-66
2023/02/07 11:26:03;;;;;;;13.95;9.77;;;15.70;63.90;;;;;;4033752;29;20072;-66
2023/02/07 11:28:45;;;;;;;14.05;10.55;;;15.70;63.80;;;;;;4045530;29;20064;-66
2023/02/07 11:31:28;;;;;;;;;;;15.80;64.20;;;;;;4045961;29;20385;-70
2023/02/07 11:34:29;;;;;;;12.95;9.98;;;15.90;63.70;;;;;;4044263;29;20390;-67
2023/02/07 11:37:21;;;;;;;14.63;10.75;;;15.90;63.30;;;;;;4043825;29;20091;-68
2023/02/07 11:40:24;;;;;;;13.68;10.35;;;16.00;63.10;;;;;;4045832;29;20155;-67
2023/02/07 11:43:12;;;;;;;11.45;9.73;;;16.00;62.90;;;;;;4045282;29;20104;-69
2023/02/07 11:46:03;;;;;;;13.73;10.40;;;16.00;63.10;;;;;;4034464;29;20064;-67
2023/02/07 11:48:49;;;;;;;12.50;10.23;;;16.00;63.20;;;;;;4045684;29;21025;-66
2023/02/07 11:51:32;;;;;;;15.32;10.93;;;16.10;63.40;;;;;;4045256;29;20127;-67
2023/02/07 11:54:15;;;;;;;12.48;10.00;;;16.10;63.10;;;;;;4045222;29;20515;-67
2023/02/07 11:57:02;;;;;;;12.55;10.02;;;16.20;62.90;;;;;;4044972;29;20099;-67
2023/02/07 11:59:48;;;;;;;13.10;10.52;;;16.30;62.90;;;;;;4044212;29;20063;-67
2023/02/07 12:02:30;;;;;;;11.27;9.70;;;16.30;63.10;;;;;;4045199;29;20055;-68
2023/02/07 12:05:20;;;;;;;15.68;10.07;;;16.30;63.20;;;;;;4044833;29;20124;-69
2023/02/07 12:08:09;;;;;;;12.40;10.18;;;16.30;63.20;;;;;;4044951;29;20423;-67
2023/02/07 12:10:52;;;;;;;13.68;11.05;;;16.30;63.30;;;;;;4044335;29;20051;-67
2023/02/07 12:13:38;;;;;;;15.43;10.80;;;16.30;63.50;;;;;;4032414;29;20067;-67
2023/02/07 12:16:24;;;;;;;12.20;10.90;;;16.30;63.60;;;;;;4043843;29;20139;-68
2023/02/07 12:19:12;;;;;;;16.05;11.55;;;16.30;63.70;;;;;;4044980;29;20060;-67
2023/02/07 12:22:00;;;;;;;18.30;11.20;;;16.30;63.80;;;;;;4044506;29;20165;-68
2023/02/07 12:24:47;;;;;;;14.65;11.95;;;16.20;64.10;;;;;;4044488;29;20415;-68
2023/02/07 12:27:35;;;;;;;15.40;10.88;;;16.20;64.40;;;;;;4044675;29;20135;-68
2023/02/07 12:30:24;;;;;;;17.27;10.68;;;16.10;64.70;;;;;;4044942;29;20088;-67
2023/02/07 12:33:12;;;;;;;14.48;10.98;;;16.10;65.10;;;;;;4044747;29;20548;-68
2023/02/07 12:36:03;;;;;;;15.00;10.98;;;16.00;65.30;;;;;;4043907;29;20054;-68
2023/02/07 12:38:51;;;;;;;14.98;10.73;;;15.90;65.40;;;;;;4043752;29;20506;-69
2023/02/07 12:41:39;;;;;;;12.80;10.45;;;15.90;65.70;;;;;;4044041;29;20803;-67
2023/02/07 12:44:25;;;;;;;16.33;10.95;;;15.80;66.50;;;;;;4044141;29;20859;-67
2023/02/07 12:47:12;;;;;;;16.95;11.63;;;15.80;66.00;;;;;;4044585;29;20059;-67
2023/02/07 12:50:13;;;;;;;14.25;10.32;;;15.70;66.30;;;;;;4043799;29;20528;-67
2023/02/07 12:53:08;;;;;;;15.30;11.60;;;15.60;65.90;;;;;;4044255;29;20150;-67
2023/02/07 12:56:03;;;;;;;15.00;9.88;;;15.50;66.20;;;;;;4042753;29;20160;-68
2023/02/07 12:58:52;;;;;;;13.95;10.68;;;15.40;66.90;;;;;;4044725;29;20059;-67
2023/02/07 13:01:38;;;;;;;18.52;11.00;;;15.40;67.30;;;;;;4044121;29;20063;-68
2023/02/07 13:04:37;;;;;;;19.85;11.50;;;15.30;67.00;;;;;;4044284;29;20074;-67
2023/02/07 13:07:33;;;;;;;16.40;11.50;;;15.20;67.00;;;;;;4043738;29;20112;-67
2023/02/07 13:10:22;;;;;;;16.40;11.13;;;15.10;67.70;;;;;;4044242;29;20376;-67
2023/02/07 13:13:12;;;;;;;14.80;11.25;;;15.10;68.10;;;;;;4043975;29;20064;-68
2023/02/07 13:15:59;;;;;;;15.88;11.20;;;15.00;68.90;;;;;;4044577;29;20118;-65
2023/02/07 13:18:48;;;;;;;13.75;11.05;;;15.00;70.00;;;;;;4044669;29;20063;-62
2023/02/07 13:21:37;;;;;;;14.80;10.50;;;15.10;70.30;;;;;;4043869;29;20064;-68
2023/02/07 13:24:21;;;;;;;15.60;10.93;;;15.10;71.30;;;;;;4044381;29;20071;-69
2023/02/07 13:27:07;;;;;;;16.38;11.60;;;15.10;71.20;;;;;;4047280;29;20068;-70
2023/02/07 13:29:51;;;;;;;17.80;11.20;;;15.20;71.40;;;;;;4047373;29;20087;-70
2023/02/07 13:32:33;;;;;;;14.35;10.45;;;15.20;71.40;;;;;;4048418;29;20677;-72
2023/02/07 13:35:17;;;;;;;16.30;11.35;;;15.30;71.40;;;;;;4046710;29;20064;-74
2023/02/07 13:38:06;;;;;;;15.65;10.68;;;15.20;71.30;;;;;;4047464;29;20775;-67
2023/02/07 13:40:55;;;;;;;15.90;10.45;;;15.20;71.00;;;;;;4046983;29;20059;-68
2023/02/07 13:43:47;;;;;;;14.88;10.75;;;15.20;71.20;;;;;;4047468;29;20059;-67
2023/02/07 13:46:56;;;;;;;15.30;10.63;;;15.20;70.90;;;;;;4034769;29;20064;-67
2023/02/07 13:49:46;;;;;;;15.68;11.20;;;15.20;70.60;;;;;;4046408;29;20416;-67
2023/02/07 13:52:34;;;;;;;14.63;10.38;;;15.20;71.10;;;;;;4046277;29;20096;-67
2023/02/07 13:55:26;;;;;;;15.63;10.85;;;15.20;71.80;;;;;;4047187;29;20071;-67
2023/02/07 14:01:49;;;;;;;14.57;10.82;;;15.10;70.20;;;;;;4045788;29;20079;-66
2023/02/07 14:04:49;;;;;;;13.93;10.20;;;15.10;71.20;;;;;;4046376;29;20080;-66
2023/02/07 14:07:32;;;;;;;15.00;9.73;;;15.10;70.60;;;;;;4045375;29;20055;-71
2023/02/07 14:10:37;;;;;;;14.77;10.55;;;15.10;71.40;;;;;;4045426;29;20204;-70